Time;durP1;ratioP1;P1;durP2;ratioP2;P2;SDS_P1;SDS_P2;PMS_P1;PMS_P2;Temp;Humidity;BMP_temperature;BMP_pressure;BME280_temperature;BME280_humidity;BME280_pressure;Samples;Min_cycle;Max_cycle;Signal;HPM_P1;HPM_P2
2022/01/08 00:00:34;;;;;;;17.97;10.80;;;1.90;99.90;;;;;;5166036;28;20506;-54
2022/01/08 00:03:05;;;;;;;20.33;13.13;;;2.00;99.90;;;;;;5165892;28;20661;-53
2022/01/08 00:05:35;;;;;;;11.77;9.30;;;1.80;99.90;;;;;;5164746;28;20680;-52
2022/01/08 00:08:06;;;;;;;17.93;9.47;;;1.90;99.90;;;;;;5164372;28;20197;-52
2022/01/08 00:10:36;;;;;;;13.30;8.93;;;1.80;99.90;;;;;;5147954;28;20731;-53
2022/01/08 00:13:08;;;;;;;20.03;12.70;;;1.70;99.90;;;;;;5148235;28;20189;-51
2022/01/08 00:15:38;;;;;;;13.00;9.93;;;1.70;99.90;;;;;;5165098;28;20215;-53
2022/01/08 00:18:09;;;;;;;13.30;9.93;;;1.70;99.90;;;;;;5147895;28;20433;-54
2022/01/08 00:20:39;;;;;;;14.20;9.20;;;1.70;99.90;;;;;;5164218;28;20275;-52
2022/01/08 00:23:10;;;;;;;16.70;12.27;;;1.70;99.90;;;;;;5165514;28;20177;-53
2022/01/08 00:25:41;;;;;;;14.60;10.23;;;1.60;99.90;;;;;;5165400;28;20323;-53
2022/01/08 00:28:12;;;;;;;26.80;14.50;;;1.60;99.90;;;;;;5147899;28;20514;-52
2022/01/08 00:30:43;;;;;;;22.50;14.87;;;1.60;99.90;;;;;;5163580;28;20299;-53
2022/01/08 00:33:13;;;;;;;32.70;21.43;;;1.50;99.90;;;;;;5148473;28;20185;-52
2022/01/08 00:35:44;;;;;;;17.13;13.63;;;1.40;99.90;;;;;;5165445;28;20515;-52
2022/01/08 00:38:14;;;;;;;11.60;10.50;;;1.50;99.90;;;;;;5165300;28;20184;-53
2022/01/08 00:40:45;;;;;;;11.30;10.20;;;1.40;99.90;;;;;;5164636;28;20291;-52
2022/01/08 00:43:15;;;;;;;13.00;9.80;;;1.30;99.90;;;;;;5147268;28;20197;-52
2022/01/08 00:45:46;;;;;;;13.00;9.87;;;1.30;99.90;;;;;;5149162;28;20217;-52
2022/01/08 00:48:16;;;;;;;15.40;12.63;;;1.50;99.90;;;;;;5165213;28;20188;-53
2022/01/08 00:50:47;;;;;;;17.20;12.10;;;1.40;99.90;;;;;;5163922;28;20483;-51
2022/01/08 00:53:18;;;;;;;18.90;13.67;;;1.40;99.90;;;;;;5163070;28;20181;-50
2022/01/08 00:55:49;;;;;;;15.87;12.43;;;1.20;99.90;;;;;;5162370;28;20196;-52
2022/01/08 00:58:20;;;;;;;16.20;12.57;;;1.30;99.90;;;;;;5131023;28;20441;-51
2022/01/08 01:00:50;;;;;;;18.97;12.10;;;1.20;99.90;;;;;;5147121;28;20192;-52
2022/01/08 01:03:21;;;;;;;13.77;11.50;;;1.10;99.90;;;;;;5162750;28;20188;-52
2022/01/08 01:05:51;;;;;;;18.03;13.90;;;1.10;99.90;;;;;;5163832;28;20201;-51
2022/01/08 01:08:22;;;;;;;17.27;13.37;;;1.30;99.90;;;;;;5162234;28;20748;-53
2022/01/08 01:10:52;;;;;;;13.70;11.93;;;1.10;99.90;;;;;;5163925;28;20251;-53
2022/01/08 01:13:23;;;;;;;18.10;11.53;;;1.10;99.90;;;;;;5162127;28;20179;-52
2022/01/08 01:15:53;;;;;;;15.40;12.90;;;1.10;99.90;;;;;;5146673;28;20216;-52
2022/01/08 01:18:24;;;;;;;18.23;13.00;;;1.20;99.90;;;;;;5147633;28;20181;-51
2022/01/08 01:20:55;;;;;;;22.60;14.23;;;1.20;99.90;;;;;;5163696;28;20193;-52
2022/01/08 01:23:39;;;;;;;15.87;13.43;;;1.20;99.90;;;;;;5147453;28;20184;-51
2022/01/08 01:26:15;;;;;;;18.77;13.10;;;1.20;99.90;;;;;;5145824;28;20235;-51
2022/01/08 01:28:54;;;;;;;19.43;14.40;;;1.20;99.90;;;;;;5147480;28;20783;-52
2022/01/08 01:43:17;;;;;;;17.40;11.83;;;1.20;99.90;;;;;;5165030;28;20419;-52
2022/01/08 01:48:32;;;;;;;21.73;14.60;;;1.20;99.90;;;;;;5166926;28;20415;-51
2022/01/08 01:51:03;;;;;;;18.63;12.60;;;1.20;99.90;;;;;;5165379;28;20476;-50
2022/01/08 01:53:33;;;;;;;18.10;13.07;;;1.20;99.90;;;;;;5147507;28;20184;-52
2022/01/08 01:56:04;;;;;;;18.80;13.10;;;1.20;99.90;;;;;;5147358;28;20204;-51
2022/01/08 01:58:34;;;;;;;14.50;11.47;;;1.20;99.90;;;;;;5147626;28;20188;-51
2022/01/08 02:01:05;;;;;;;14.00;11.87;;;1.20;99.90;;;;;;5148097;28;20212;-52
2022/01/08 02:03:36;;;;;;;19.20;12.93;;;1.10;99.90;;;;;;5148079;28;20609;-50
2022/01/08 02:06:08;;;;;;;23.10;14.53;;;1.10;99.90;;;;;;5146856;28;20204;-53
2022/01/08 02:08:39;;;;;;;27.93;14.10;;;1.10;99.90;;;;;;5145732;28;20956;-52
2022/01/08 02:11:09;;;;;;;15.33;12.53;;;1.20;99.90;;;;;;5163059;28;20470;-51
2022/01/08 02:13:40;;;;;;;15.03;12.47;;;1.20;99.90;;;;;;5161948;28;20429;-51
2022/01/08 02:16:17;;;;;;;18.27;12.10;;;1.10;99.90;;;;;;5150245;28;20200;-50
2022/01/08 02:18:47;;;;;;;22.47;13.57;;;1.10;99.90;;;;;;5168976;28;20562;-51
2022/01/08 02:21:18;;;;;;;20.83;13.47;;;1.10;99.90;;;;;;5165201;28;20428;-51
2022/01/08 02:23:48;;;;;;;16.37;12.30;;;1.10;99.90;;;;;;5151296;28;20273;-53
2022/01/08 02:26:19;;;;;;;19.93;12.90;;;1.20;99.90;;;;;;5166497;28;20558;-51
2022/01/08 02:28:49;;;;;;;17.30;12.20;;;1.20;99.90;;;;;;5149472;28;20494;-53
2022/01/08 02:31:24;;;;;;;16.53;12.60;;;1.30;99.90;;;;;;5150024;28;20200;-52
2022/01/08 02:33:56;;;;;;;20.23;12.63;;;1.20;99.90;;;;;;5151286;28;20196;-53
2022/01/08 02:36:26;;;;;;;16.50;13.10;;;1.20;99.90;;;;;;5167761;28;20531;-51
2022/01/08 02:38:57;;;;;;;15.23;10.80;;;1.20;99.90;;;;;;5168117;28;20863;-53
2022/01/08 02:41:27;;;;;;;17.10;11.37;;;1.20;99.90;;;;;;5151370;28;20267;-53
2022/01/08 02:43:58;;;;;;;17.40;12.00;;;1.30;99.90;;;;;;5150469;28;20184;-52
2022/01/08 02:46:30;;;;;;;16.83;12.40;;;1.30;99.90;;;;;;5167014;28;20218;-51
2022/01/08 02:49:00;;;;;;;15.87;11.43;;;1.30;99.90;;;;;;5150894;28;20177;-53
2022/01/08 02:51:33;;;;;;;15.47;11.00;;;1.30;99.90;;;;;;5168461;28;20411;-52
2022/01/08 02:54:08;;;;;;;13.53;10.07;;;1.30;99.90;;;;;;5166352;28;20270;-53
2022/01/08 02:56:45;;;;;;;12.60;10.63;;;1.30;99.90;;;;;;5149829;28;20455;-52
2022/01/08 02:59:16;;;;;;;15.53;11.40;;;1.40;99.90;;;;;;5149867;28;20431;-52
2022/01/08 03:01:47;;;;;;;19.90;10.43;;;1.40;99.90;;;;;;5150472;28;20443;-51
2022/01/08 03:04:18;;;;;;;18.83;11.40;;;1.40;99.90;;;;;;5150499;28;20432;-51
2022/01/08 03:06:48;;;;;;;16.13;11.57;;;1.40;99.90;;;;;;5167463;28;20204;-52
2022/01/08 03:09:19;;;;;;;17.70;12.80;;;1.50;99.90;;;;;;5149037;28;20205;-51
2022/01/08 03:11:49;;;;;;;17.43;12.53;;;1.50;99.90;;;;;;5163935;28;20188;-50
2022/01/08 03:14:20;;;;;;;17.80;12.40;;;1.50;99.90;;;;;;5166484;28;20177;-52
2022/01/08 03:16:50;;;;;;;17.67;12.07;;;1.50;99.90;;;;;;5150185;28;20215;-52
2022/01/08 03:19:22;;;;;;;15.30;11.90;;;1.50;99.90;;;;;;5149254;28;20193;-52
2022/01/08 03:21:55;;;;;;;19.13;10.07;;;1.50;99.90;;;;;;5166410;28;20184;-51
2022/01/08 03:24:27;;;;;;;14.30;10.67;;;1.50;99.90;;;;;;5166578;28;20442;-51
2022/01/08 03:26:58;;;;;;;12.83;11.07;;;1.50;99.90;;;;;;5165873;28;20443;-52
2022/01/08 03:29:29;;;;;;;13.90;9.93;;;1.50;99.90;;;;;;5132381;28;20464;-52
2022/01/08 03:32:00;;;;;;;14.27;10.47;;;1.50;99.90;;;;;;5166467;28;20177;-51
2022/01/08 03:34:30;;;;;;;14.80;11.10;;;1.50;99.90;;;;;;5165640;28;20185;-50
2022/01/08 03:37:01;;;;;;;14.03;10.03;;;1.60;99.90;;;;;;5166733;28;20507;-52
2022/01/08 03:39:31;;;;;;;17.40;10.40;;;1.50;99.90;;;;;;5147820;28;20185;-52
2022/01/08 03:42:02;;;;;;;10.93;9.53;;;1.50;99.90;;;;;;5164802;28;20216;-51
2022/01/08 03:44:33;;;;;;;12.60;10.60;;;1.40;99.90;;;;;;5147851;28;20189;-51
2022/01/08 03:49:53;;;;;;;12.80;10.60;;;1.20;99.90;;;;;;5144740;28;20227;-47
2022/01/08 03:52:24;;;;;;;12.27;10.37;;;1.30;99.90;;;;;;5145135;28;20535;-48
2022/01/08 03:54:54;;;;;;;14.97;10.90;;;1.30;99.90;;;;;;5137103;28;21026;-48
2022/01/08 03:57:25;;;;;;;10.17;9.13;;;1.30;99.90;;;;;;5141119;28;20562;-48
2022/01/08 03:59:55;;;;;;;13.47;10.80;;;1.40;99.90;;;;;;5139582;28;20186;-48
2022/01/08 04:02:26;;;;;;;13.20;11.17;;;1.40;99.90;;;;;;5138484;28;20195;-49
2022/01/08 04:04:56;;;;;;;13.43;10.83;;;1.40;99.90;;;;;;5145267;28;20182;-47
2022/01/08 04:07:27;;;;;;;13.30;11.30;;;1.30;99.90;;;;;;5146381;28;20597;-47
2022/01/08 04:09:57;;;;;;;13.07;10.03;;;1.30;99.90;;;;;;5134881;28;20250;-47
2022/01/08 04:12:37;;;;;;;14.47;10.67;;;1.20;99.90;;;;;;5137052;28;21040;-48
2022/01/08 04:15:31;;;;;;;13.13;10.50;;;1.20;99.90;;;;;;5145927;28;20244;-47
2022/01/08 04:17:59;;;;;;;14.40;10.73;;;1.30;99.90;;;;;;5145109;28;20921;-47
2022/01/08 04:20:30;;;;;;;15.30;11.83;;;1.30;99.90;;;;;;5144478;28;20499;-51
2022/01/08 04:23:01;;;;;;;16.13;11.40;;;1.30;99.90;;;;;;5146102;28;20178;-47
2022/01/08 04:25:32;;;;;;;22.10;12.00;;;1.30;99.90;;;;;;5144418;28;20464;-48
2022/01/08 04:28:03;;;;;;;16.03;10.67;;;1.40;99.90;;;;;;5151848;28;20439;-47
2022/01/08 04:30:33;;;;;;;14.67;10.83;;;1.40;99.90;;;;;;5140096;28;20686;-47
2022/01/08 04:33:04;;;;;;;16.17;10.03;;;1.50;99.90;;;;;;5137066;28;20186;-47
2022/01/08 04:35:34;;;;;;;15.73;11.07;;;1.40;99.90;;;;;;5138965;28;20553;-48
2022/01/08 04:38:05;;;;;;;12.73;10.23;;;1.40;99.90;;;;;;5138149;28;20181;-47
2022/01/08 04:40:36;;;;;;;15.00;10.70;;;1.50;99.90;;;;;;5140235;28;20213;-47
2022/01/08 04:43:06;;;;;;;16.10;10.77;;;1.50;99.90;;;;;;5137147;28;20193;-49
2022/01/08 04:45:37;;;;;;;14.57;11.60;;;1.50;99.90;;;;;;5136578;28;20697;-48
2022/01/08 04:48:07;;;;;;;19.03;10.70;;;1.50;99.90;;;;;;5136687;28;20269;-48
2022/01/08 04:50:38;;;;;;;15.60;11.17;;;1.50;99.90;;;;;;5141660;28;20996;-48
2022/01/08 04:53:09;;;;;;;13.37;9.97;;;1.50;99.90;;;;;;5142678;28;20204;-47
2022/01/08 04:55:39;;;;;;;12.00;10.13;;;1.60;99.90;;;;;;5156305;28;20202;-47
2022/01/08 04:58:10;;;;;;;17.13;9.77;;;1.60;99.90;;;;;;5147432;28;20276;-48
2022/01/08 05:00:41;;;;;;;14.53;10.67;;;1.60;99.90;;;;;;5145254;28;20722;-46
2022/01/08 05:03:12;;;;;;;14.40;11.00;;;1.70;99.90;;;;;;5143222;28;20209;-46
2022/01/08 05:05:42;;;;;;;15.57;10.67;;;1.70;99.90;;;;;;5144368;28;20494;-47
2022/01/08 05:08:13;;;;;;;16.20;10.53;;;1.60;99.90;;;;;;5137990;28;20746;-47
2022/01/08 05:10:43;;;;;;;11.23;9.10;;;1.60;99.90;;;;;;5143628;28;20248;-48
2022/01/08 05:13:14;;;;;;;13.47;10.00;;;1.60;99.90;;;;;;5143821;28;20272;-48
2022/01/08 05:15:44;;;;;;;18.40;11.43;;;1.70;99.90;;;;;;5140430;28;20550;-48
2022/01/08 05:18:15;;;;;;;15.80;10.87;;;1.60;99.90;;;;;;5138678;28;20236;-48
2022/01/08 05:20:55;;;;;;;15.87;11.43;;;1.60;99.90;;;;;;5137915;28;20269;-49
2022/01/08 05:23:25;;;;;;;13.40;10.67;;;1.60;99.90;;;;;;5143832;28;20186;-47
2022/01/08 05:25:56;;;;;;;12.60;9.17;;;1.50;99.90;;;;;;5143391;28;20958;-46
2022/01/08 05:28:26;;;;;;;14.33;10.40;;;1.40;99.90;;;;;;5143893;28;20189;-47
2022/01/08 05:30:57;;;;;;;16.57;10.73;;;1.40;99.90;;;;;;5138003;28;20247;-47
2022/01/08 05:33:27;;;;;;;13.43;11.00;;;1.30;99.90;;;;;;5144022;28;20212;-48
2022/01/08 05:35:58;;;;;;;15.23;11.00;;;1.30;99.90;;;;;;5144210;28;20205;-49
2022/01/08 05:38:29;;;;;;;13.87;10.93;;;1.30;99.90;;;;;;5143194;28;20525;-48
2022/01/08 05:41:00;;;;;;;17.63;12.20;;;1.30;99.90;;;;;;5137662;28;20841;-48
2022/01/08 05:43:31;;;;;;;15.30;10.97;;;1.30;99.90;;;;;;5142861;28;20193;-48
2022/01/08 05:46:01;;;;;;;18.40;11.60;;;1.20;99.90;;;;;;5142718;28;20762;-49
2022/01/08 05:48:36;;;;;;;14.53;11.23;;;1.20;99.90;;;;;;5144954;28;20425;-48
2022/01/08 05:51:07;;;;;;;14.73;12.07;;;1.10;99.90;;;;;;5135181;28;20594;-48
2022/01/08 05:53:37;;;;;;;18.23;11.80;;;1.10;99.90;;;;;;5138540;28;20515;-49
2022/01/08 05:56:08;;;;;;;18.03;11.77;;;1.20;99.90;;;;;;5144672;28;20213;-47
2022/01/08 05:58:39;;;;;;;19.27;12.40;;;1.30;99.90;;;;;;5144020;28;20188;-48
2022/01/08 06:01:10;;;;;;;18.50;12.40;;;1.30;99.90;;;;;;5142694;28;20425;-48
2022/01/08 06:03:40;;;;;;;13.57;11.67;;;1.40;99.90;;;;;;5142492;28;20201;-48
2022/01/08 06:06:11;;;;;;;15.33;11.50;;;1.30;99.90;;;;;;5143977;28;20757;-48
2022/01/08 06:08:41;;;;;;;17.67;12.60;;;1.40;99.90;;;;;;5144046;28;20272;-49
2022/01/08 06:11:12;;;;;;;14.20;10.90;;;1.40;99.90;;;;;;5145574;28;20201;-49
2022/01/08 06:13:42;;;;;;;14.57;11.60;;;1.50;99.90;;;;;;5145117;28;20216;-48
2022/01/08 06:16:13;;;;;;;18.77;12.23;;;1.50;99.90;;;;;;5144144;28;20210;-49
2022/01/08 06:18:43;;;;;;;14.60;11.80;;;1.50;99.90;;;;;;5140277;28;20220;-48
2022/01/08 06:21:14;;;;;;;18.40;13.00;;;1.60;99.90;;;;;;5135158;28;20185;-49
2022/01/08 06:23:45;;;;;;;19.10;12.50;;;1.60;99.90;;;;;;5137055;28;20217;-49
2022/01/08 06:26:15;;;;;;;14.67;12.03;;;1.60;99.90;;;;;;5143268;28;20210;-49
2022/01/08 06:28:46;;;;;;;15.33;12.50;;;1.60;99.90;;;;;;5142831;28;20220;-48
2022/01/08 06:31:16;;;;;;;19.73;12.30;;;1.70;99.90;;;;;;5143377;28;20209;-49
2022/01/08 06:33:48;;;;;;;16.30;11.57;;;1.70;99.90;;;;;;5124571;28;20174;-54
2022/01/08 06:36:19;;;;;;;14.17;10.13;;;1.80;99.90;;;;;;5146638;28;20284;-48
2022/01/08 06:38:51;;;;;;;17.70;12.40;;;1.80;99.90;;;;;;5144650;28;20433;-48
2022/01/08 06:41:21;;;;;;;18.20;11.03;;;1.80;99.90;;;;;;5139064;28;20441;-48
2022/01/08 06:43:52;;;;;;;11.50;9.77;;;1.90;99.90;;;;;;5139958;28;20499;-48
2022/01/08 06:46:23;;;;;;;16.67;10.80;;;1.90;99.90;;;;;;5144350;28;20219;-47
2022/01/08 06:48:54;;;;;;;14.17;10.27;;;1.90;99.90;;;;;;5143614;28;20181;-48
2022/01/08 06:51:25;;;;;;;16.57;10.10;;;1.90;99.90;;;;;;5142568;28;20490;-48
2022/01/08 06:53:56;;;;;;;14.90;9.43;;;1.90;99.90;;;;;;5136354;28;20618;-49
2022/01/08 06:56:26;;;;;;;11.43;9.50;;;2.00;99.90;;;;;;5139402;28;20468;-49
2022/01/08 06:58:57;;;;;;;19.60;10.27;;;2.00;99.90;;;;;;5142579;28;20937;-47
2022/01/08 07:01:28;;;;;;;18.00;11.13;;;2.10;99.90;;;;;;5134644;28;20174;-48
2022/01/08 07:03:58;;;;;;;10.77;9.37;;;2.10;99.90;;;;;;5146145;28;20182;-48
2022/01/08 07:06:29;;;;;;;16.73;10.40;;;2.20;99.90;;;;;;5146656;28;20209;-48
2022/01/08 07:08:59;;;;;;;13.87;11.17;;;2.20;99.90;;;;;;5140155;28;20724;-48
2022/01/08 07:11:30;;;;;;;14.67;10.37;;;2.20;99.90;;;;;;5140252;28;20205;-48
2022/01/08 07:14:02;;;;;;;12.97;9.57;;;2.20;99.90;;;;;;5147077;28;20186;-47
2022/01/08 07:16:32;;;;;;;11.10;9.00;;;2.30;99.90;;;;;;5145603;28;20205;-50
2022/01/08 07:19:03;;;;;;;19.30;11.33;;;2.20;99.90;;;;;;5141062;28;20898;-48
2022/01/08 07:21:33;;;;;;;18.93;11.57;;;2.20;99.90;;;;;;5138026;28;20192;-49
2022/01/08 07:24:04;;;;;;;16.30;10.10;;;2.20;99.90;;;;;;5146030;28;20190;-48
2022/01/08 07:26:35;;;;;;;13.40;9.20;;;2.20;99.90;;;;;;5146754;28;20573;-46
2022/01/08 07:29:05;;;;;;;12.37;10.07;;;2.30;99.90;;;;;;5144420;28;20185;-48
2022/01/08 07:31:36;;;;;;;13.57;10.00;;;2.30;99.90;;;;;;5139005;28;20189;-48
2022/01/08 07:34:06;;;;;;;13.80;10.03;;;2.20;99.90;;;;;;5145024;28;20688;-46
2022/01/08 07:36:37;;;;;;;12.33;9.70;;;2.20;99.90;;;;;;5145373;28;20255;-49
2022/01/08 07:39:07;;;;;;;17.00;11.37;;;2.20;99.90;;;;;;5145924;28;20723;-50
2022/01/08 07:41:38;;;;;;;16.07;11.20;;;2.20;99.90;;;;;;5138082;28;20182;-49
2022/01/08 07:44:08;;;;;;;18.73;10.87;;;2.10;99.90;;;;;;5146325;28;20491;-47
2022/01/08 07:46:39;;;;;;;16.10;11.13;;;2.10;99.90;;;;;;5139779;28;20224;-48
2022/01/08 07:49:10;;;;;;;19.80;12.90;;;2.10;99.90;;;;;;5137411;28;20185;-47
2022/01/08 07:51:40;;;;;;;15.17;11.73;;;2.10;99.90;;;;;;5136398;28;20174;-49
2022/01/08 07:54:11;;;;;;;15.03;11.37;;;2.00;99.90;;;;;;5145351;28;20329;-47
2022/01/08 07:56:41;;;;;;;19.20;13.20;;;2.00;99.90;;;;;;5145629;28;20221;-49
2022/01/08 07:59:12;;;;;;;28.30;14.47;;;2.00;99.90;;;;;;5137198;28;20197;-48
2022/01/08 08:01:42;;;;;;;18.57;13.47;;;2.00;99.90;;;;;;5140316;28;20186;-49
2022/01/08 08:04:13;;;;;;;20.90;13.57;;;2.10;99.90;;;;;;5135421;28;20677;-49
2022/01/08 08:06:47;;;;;;;23.13;14.33;;;2.00;99.90;;;;;;5135628;28;20205;-48
2022/01/08 08:09:18;;;;;;;24.30;15.67;;;2.00;99.90;;;;;;5143969;28;20657;-48
2022/01/08 08:11:49;;;;;;;26.63;15.40;;;2.10;99.90;;;;;;5144053;28;20459;-48
2022/01/08 08:14:19;;;;;;;21.47;13.50;;;2.10;99.90;;;;;;5143902;28;20494;-48
2022/01/08 08:16:50;;;;;;;18.33;13.13;;;2.10;99.90;;;;;;5143966;28;20220;-49
2022/01/08 08:19:20;;;;;;;18.93;13.00;;;2.10;99.90;;;;;;5143398;28;20182;-50
2022/01/08 08:21:51;;;;;;;19.37;12.07;;;2.00;99.90;;;;;;5131052;28;20189;-49
2022/01/08 08:24:21;;;;;;;16.33;10.60;;;2.10;99.90;;;;;;5145371;28;21784;-50
2022/01/08 08:26:52;;;;;;;15.97;11.10;;;2.10;99.90;;;;;;5127460;28;20210;-49
2022/01/08 08:29:22;;;;;;;17.43;11.13;;;2.10;99.90;;;;;;5144819;28;20217;-49
2022/01/08 08:31:53;;;;;;;17.40;10.33;;;2.10;99.90;;;;;;5145948;28;20193;-49
2022/01/08 08:34:24;;;;;;;14.17;10.20;;;2.20;99.90;;;;;;5145241;28;20213;-49
2022/01/08 08:36:54;;;;;;;14.80;9.63;;;2.20;99.90;;;;;;5145093;28;20205;-48
2022/01/08 08:39:25;;;;;;;13.33;9.13;;;2.30;99.90;;;;;;5145118;28;20534;-48
2022/01/08 08:41:56;;;;;;;17.90;11.97;;;2.30;99.90;;;;;;5144572;28;20247;-49
2022/01/08 08:44:27;;;;;;;15.47;10.37;;;2.30;99.90;;;;;;5138251;28;20524;-51
2022/01/08 08:46:57;;;;;;;16.20;10.40;;;2.40;99.90;;;;;;5144672;28;20213;-49
2022/01/08 08:49:28;;;;;;;18.33;10.93;;;2.40;99.90;;;;;;5144957;28;20843;-49
2022/01/08 08:51:59;;;;;;;19.63;9.77;;;2.50;99.90;;;;;;5140099;28;20315;-49
2022/01/08 08:54:30;;;;;;;15.77;10.53;;;2.60;99.90;;;;;;5145624;28;20178;-48
2022/01/08 08:57:00;;;;;;;15.63;11.50;;;2.60;99.90;;;;;;5144150;28;20818;-49
2022/01/08 08:59:31;;;;;;;16.63;11.90;;;2.70;99.90;;;;;;5136878;28;20270;-48
2022/01/08 09:02:02;;;;;;;15.13;11.03;;;2.80;99.90;;;;;;5143965;28;20228;-49
2022/01/08 09:04:32;;;;;;;17.27;11.37;;;2.70;99.90;;;;;;5144551;28;20848;-50
2022/01/08 09:07:06;;;;;;;18.70;10.57;;;2.80;99.90;;;;;;5141754;28;20461;-49
2022/01/08 09:09:37;;;;;;;17.53;12.27;;;2.70;99.90;;;;;;5124538;28;20745;-49
2022/01/08 09:12:09;;;;;;;20.20;12.40;;;2.70;99.90;;;;;;5144237;28;20563;-49
2022/01/08 09:14:41;;;;;;;22.53;15.03;;;2.60;99.90;;;;;;5144406;28;20182;-48
2022/01/08 09:17:14;;;;;;;19.73;14.30;;;2.70;99.90;;;;;;5144360;28;20460;-47
2022/01/08 09:19:45;;;;;;;13.40;11.10;;;2.60;99.90;;;;;;5144836;28;20854;-49
2022/01/08 09:22:15;;;;;;;22.60;12.93;;;2.60;99.90;;;;;;5145002;28;20433;-48
2022/01/08 09:24:47;;;;;;;18.83;12.87;;;2.60;99.90;;;;;;5141675;28;20947;-49
2022/01/08 09:27:17;;;;;;;19.73;12.83;;;2.60;99.90;;;;;;5144580;28;20515;-49
2022/01/08 09:29:48;;;;;;;18.27;12.13;;;2.70;99.90;;;;;;5144946;28;20468;-49
2022/01/08 09:32:19;;;;;;;32.70;20.93;;;2.80;99.90;;;;;;5122559;28;20248;-49
2022/01/08 09:34:50;;;;;;;23.73;14.33;;;2.80;99.90;;;;;;5145734;28;20690;-48
2022/01/08 09:37:20;;;;;;;23.13;14.10;;;2.90;99.90;;;;;;5139110;28;20563;-50
2022/01/08 09:39:51;;;;;;;13.73;11.20;;;3.00;99.90;;;;;;5154595;28;20936;-47
2022/01/08 09:42:21;;;;;;;20.10;12.20;;;3.10;99.90;;;;;;5145146;28;20199;-49
2022/01/08 09:44:53;;;;;;;14.47;10.90;;;3.00;99.90;;;;;;5144208;28;20190;-48
2022/01/08 09:47:23;;;;;;;18.23;11.97;;;3.10;99.90;;;;;;5171803;23;20224;-53
2022/01/08 09:49:54;;;;;;;15.90;10.30;;;3.20;99.90;;;;;;5181420;28;20461;-50
2022/01/08 09:52:24;;;;;;;11.63;9.40;;;3.30;99.90;;;;;;5181793;28;20886;-54
2022/01/08 09:54:55;;;;;;;11.97;9.20;;;3.40;99.90;;;;;;5182996;28;20176;-53
2022/01/08 09:57:26;;;;;;;15.73;9.80;;;3.50;99.90;;;;;;5165130;28;20216;-52
2022/01/08 09:59:57;;;;;;;11.43;9.37;;;3.40;99.90;;;;;;5160448;28;20203;-53
2022/01/08 10:02:28;;;;;;;12.37;8.90;;;3.30;99.90;;;;;;5161063;28;20467;-53
2022/01/08 10:05:11;;;;;;;14.20;9.47;;;3.30;99.90;;;;;;5161226;28;20518;-52
2022/01/08 10:07:55;;;;;;;11.20;8.93;;;3.30;99.90;;;;;;5162155;28;20220;-53
2022/01/08 10:10:27;;;;;;;12.07;8.90;;;3.30;99.90;;;;;;5145347;28;20577;-51
2022/01/08 10:13:01;;;;;;;11.57;9.33;;;3.10;99.90;;;;;;5162869;28;20420;-52
2022/01/08 10:18:33;;;;;;;21.47;9.93;;;2.70;99.90;;;;;;5161807;28;20494;-53
2022/01/08 10:21:24;;;;;;;14.10;10.30;;;2.60;99.90;;;;;;5160209;28;20432;-52
2022/01/08 10:24:00;;;;;;;12.83;10.70;;;2.50;99.90;;;;;;5158788;28;20444;-51
2022/01/08 10:26:36;;;;;;;11.93;9.90;;;2.40;99.90;;;;;;5144480;28;20534;-54
2022/01/08 10:29:18;;;;;;;16.80;11.50;;;2.40;99.90;;;;;;5142475;28;20486;-53
2022/01/08 10:31:52;;;;;;;15.40;10.00;;;2.40;99.90;;;;;;5161928;28;20924;-52
2022/01/08 10:34:26;;;;;;;14.23;9.37;;;2.50;99.90;;;;;;5144652;28;20444;-53
2022/01/08 10:37:05;;;;;;;16.10;10.83;;;2.60;99.90;;;;;;5164247;28;20435;-51
2022/01/08 10:39:38;;;;;;;16.13;10.53;;;2.60;99.90;;;;;;5165909;28;20428;-54
2022/01/08 10:42:14;;;;;;;14.83;10.43;;;2.70;99.90;;;;;;5148671;28;20502;-52
2022/01/08 10:44:47;;;;;;;14.73;10.93;;;2.80;99.90;;;;;;5165662;28;21013;-52
2022/01/08 10:47:20;;;;;;;12.93;10.10;;;2.80;99.90;;;;;;5113561;28;1014472;-52
2022/01/08 10:50:00;;;;;;;16.83;9.97;;;2.90;99.90;;;;;;5165699;28;20212;-52
2022/01/08 10:52:42;;;;;;;11.43;9.53;;;3.10;99.90;;;;;;5166563;28;20423;-52
2022/01/08 10:55:13;;;;;;;11.37;9.53;;;3.20;99.90;;;;;;5167268;28;20416;-50
2022/01/08 10:57:46;;;;;;;14.67;10.03;;;3.20;99.90;;;;;;5150801;28;20960;-53
2022/01/08 11:00:17;;;;;;;11.43;9.50;;;3.40;99.90;;;;;;5164872;28;20451;-53
2022/01/08 11:02:47;;;;;;;12.10;9.50;;;3.60;99.90;;;;;;5150596;28;20436;-52
2022/01/08 11:05:18;;;;;;;11.60;9.40;;;3.70;99.90;;;;;;5166451;28;20555;-53
2022/01/08 11:07:48;;;;;;;14.73;8.90;;;3.80;99.90;;;;;;5165995;28;20303;-54
2022/01/08 11:10:21;;;;;;;15.57;10.33;;;3.80;99.90;;;;;;5148606;28;20214;-54
2022/01/08 11:12:51;;;;;;;12.10;9.20;;;3.90;99.90;;;;;;5166973;28;20185;-53
2022/01/08 11:15:35;;;;;;;11.80;8.80;;;4.00;99.90;;;;;;5167581;28;20498;-52
2022/01/08 11:18:05;;;;;;;16.00;9.97;;;4.10;99.90;;;;;;5136269;28;20199;-52
2022/01/08 11:20:36;;;;;;;15.97;10.40;;;4.10;99.90;;;;;;5166498;28;20441;-54
2022/01/08 11:23:10;;;;;;;13.67;9.53;;;4.20;99.90;;;;;;5149378;28;20186;-53
2022/01/08 11:25:44;;;;;;;13.20;8.70;;;4.40;99.90;;;;;;5166735;28;20273;-54
2022/01/08 11:28:17;;;;;;;13.80;9.57;;;4.30;99.90;;;;;;5149306;28;20450;-53
2022/01/08 11:30:57;;;;;;;18.57;10.83;;;4.10;99.90;;;;;;5165337;28;20483;-53
2022/01/08 11:33:34;;;;;;;26.30;11.47;;;4.00;99.90;;;;;;5147625;28;20440;-53
2022/01/08 11:36:06;;;;;;;24.00;10.83;;;3.70;99.90;;;;;;5148935;28;20547;-53
2022/01/08 11:38:37;;;;;;;12.73;9.23;;;3.70;99.90;;;;;;5166613;28;20816;-53
2022/01/08 11:41:07;;;;;;;19.53;10.50;;;3.70;99.90;;;;;;5148258;28;20443;-52
2022/01/08 11:43:40;;;;;;;17.57;11.10;;;3.50;99.90;;;;;;5166506;28;20420;-54
2022/01/08 11:46:13;;;;;;;13.23;8.23;;;3.60;99.90;;;;;;5148984;28;20224;-52
2022/01/08 11:48:50;;;;;;;12.60;8.90;;;3.50;99.90;;;;;;5164242;28;20448;-52
2022/01/08 11:51:23;;;;;;;17.23;9.23;;;3.40;99.90;;;;;;5164918;28;20894;-53
2022/01/08 11:53:56;;;;;;;16.10;7.60;;;3.50;99.90;;;;;;5164050;28;20421;-54
2022/01/08 11:56:36;;;;;;;8.47;7.00;;;3.50;99.90;;;;;;5162784;28;20761;-53
2022/01/08 11:59:12;;;;;;;13.87;8.60;;;3.50;99.90;;;;;;5164729;28;20443;-55
2022/01/08 12:02:02;;;;;;;10.87;8.80;;;3.40;99.90;;;;;;5164472;28;20419;-53
2022/01/08 12:04:34;;;;;;;10.30;7.27;;;3.20;99.90;;;;;;5148650;28;20435;-54
2022/01/08 12:07:33;;;;;;;6.60;5.63;;;3.20;99.90;;;;;;5149515;28;20464;-53
2022/01/08 12:10:10;;;;;;;17.33;7.93;;;3.30;99.90;;;;;;5163959;28;20464;-52
2022/01/08 12:13:07;;;;;;;13.37;6.97;;;3.30;99.90;;;;;;5148488;28;20439;-53
2022/01/08 12:15:41;;;;;;;14.93;8.73;;;3.40;99.90;;;;;;5144497;28;20424;-53
2022/01/08 12:18:20;;;;;;;17.23;8.73;;;3.30;99.90;;;;;;5165082;28;20460;-52
2022/01/08 12:20:52;;;;;;;8.63;6.80;;;3.40;99.90;;;;;;5165463;28;20428;-53
2022/01/08 12:23:27;;;;;;;15.87;9.53;;;3.30;99.90;;;;;;5161960;28;20462;-52
2022/01/08 12:26:06;;;;;;;8.50;7.70;;;3.40;99.90;;;;;;5165616;28;20956;-53
2022/01/08 12:28:53;;;;;;;8.20;7.10;;;3.30;99.90;;;;;;5165326;28;20440;-53
2022/01/08 12:31:37;;;;;;;8.03;5.70;;;3.30;99.90;;;;;;5162342;28;20470;-52
2022/01/08 12:34:25;;;;;;;10.10;7.83;;;3.40;99.90;;;;;;5164852;28;20511;-51
2022/01/08 12:37:00;;;;;;;12.63;7.30;;;3.30;99.90;;;;;;5165534;28;20448;-52
2022/01/08 12:39:43;;;;;;;8.43;7.13;;;3.50;99.90;;;;;;5164442;28;20857;-53
2022/01/08 12:42:20;;;;;;;8.30;5.57;;;3.60;99.90;;;;;;5165068;28;20432;-52
2022/01/08 12:45:04;;;;;;;11.57;6.33;;;3.60;99.90;;;;;;5163323;28;20795;-52
2022/01/08 12:47:48;;;;;;;14.47;7.60;;;3.60;99.90;;;;;;5147397;28;20472;-53
2022/01/08 12:50:18;;;;;;;16.73;7.07;;;3.50;99.90;;;;;;5146681;28;20463;-53
2022/01/08 12:53:07;;;;;;;9.40;6.10;;;3.50;99.90;;;;;;5164397;28;20451;-53
2022/01/08 12:55:42;;;;;;;12.80;9.00;;;3.40;99.90;;;;;;5163892;28;20684;-53
2022/01/08 12:58:16;;;;;;;11.87;7.03;;;3.40;99.90;;;;;;5146104;28;20553;-52
2022/01/08 13:01:07;;;;;;;7.80;6.43;;;3.60;99.90;;;;;;5163486;28;20459;-54
2022/01/08 13:03:43;;;;;;;16.33;8.70;;;3.60;99.90;;;;;;5162147;28;20798;-53
2022/01/08 13:06:14;;;;;;;10.00;7.53;;;3.70;99.90;;;;;;5165904;28;20565;-53
2022/01/08 13:08:47;;;;;;;14.07;7.60;;;3.70;99.90;;;;;;5163491;28;20773;-52
2022/01/08 13:11:31;;;;;;;7.23;6.53;;;3.70;99.90;;;;;;5147007;28;20328;-54
2022/01/08 13:14:17;;;;;;;10.50;7.20;;;3.80;99.90;;;;;;5151626;28;20944;-54
2022/01/08 13:16:50;;;;;;;14.83;7.90;;;3.90;99.90;;;;;;5139527;28;20456;-54
2022/01/08 13:19:28;;;;;;;10.23;7.23;;;4.10;99.90;;;;;;5157016;28;20428;-54
2022/01/08 13:22:04;;;;;;;9.57;6.53;;;4.10;99.90;;;;;;5158287;28;20882;-53
2022/01/08 13:24:46;;;;;;;8.87;7.33;;;4.10;99.90;;;;;;5136316;28;20554;-52
2022/01/08 13:27:23;;;;;;;12.30;7.80;;;4.10;99.90;;;;;;5154063;28;20958;-54